createdAt,value
2022-09-01T00:00:38.564Z,13.85
2022-09-01T00:04:40.698Z,13.79
2022-09-01T00:08:42.851Z,13.67
2022-09-01T00:12:45.509Z,13.58
2022-09-01T00:16:47.649Z,13.50
2022-09-01T00:20:55.801Z,13.34
2022-09-01T00:24:57.993Z,13.28
2022-09-01T00:29:00.509Z,13.37
2022-09-01T00:33:02.634Z,13.40
2022-09-01T00:37:04.715Z,13.31
2022-09-01T00:41:07.715Z,13.27
2022-09-01T00:45:11.285Z,13.33
2022-09-01T00:49:16.005Z,13.28
2022-09-01T00:53:18.498Z,13.21
2022-09-01T00:57:20.621Z,13.22
2022-09-01T01:01:23.468Z,13.28
2022-09-01T01:05:32.976Z,13.32
2022-09-01T01:09:39.865Z,13.35
2022-09-01T01:13:51.221Z,13.38
2022-09-01T01:17:53.297Z,13.41
2022-09-01T01:22:15.200Z,13.51
2022-09-01T01:26:17.317Z,13.55
2022-09-01T01:30:20.797Z,13.42
2022-09-01T01:34:24.180Z,13.22
2022-09-01T01:38:27.470Z,13.13
2022-09-01T01:42:32.994Z,13.01
2022-09-01T01:46:37.015Z,12.90
2022-09-01T01:50:39.450Z,13.00
2022-09-01T01:54:42.997Z,13.04
2022-09-01T01:58:45.931Z,13.06
2022-09-01T02:02:52.815Z,13.06
2022-09-01T02:06:55.821Z,13.01
2022-09-01T02:11:00.118Z,13.02
2022-09-01T02:15:02.749Z,12.96
2022-09-01T02:19:08.895Z,12.92
2022-09-01T02:23:11.673Z,12.97
2022-09-01T02:27:15.692Z,12.91
2022-09-01T02:31:20.000Z,12.80
2022-09-01T02:35:22.119Z,12.77
2022-09-01T02:39:28.338Z,12.79
2022-09-01T02:43:32.078Z,12.72
2022-09-01T02:47:34.149Z,12.70
2022-09-01T02:51:39.202Z,12.66
2022-09-01T02:55:42.622Z,12.60
2022-09-01T02:59:45.535Z,12.60
2022-09-01T03:03:49.012Z,12.58
2022-09-01T03:07:57.875Z,12.57
2022-09-01T03:12:03.366Z,12.42
2022-09-01T03:16:07.320Z,12.44
2022-09-01T03:20:10.343Z,12.46
2022-09-01T03:24:15.355Z,12.50
2022-09-01T03:28:17.738Z,12.43
2022-09-01T03:32:19.788Z,12.46
2022-09-01T03:36:21.907Z,12.45
2022-09-01T03:40:24.200Z,12.52
2022-09-01T03:44:26.971Z,12.71
2022-09-01T03:48:31.613Z,12.66
2022-09-01T03:52:34.203Z,12.59
2022-09-01T03:56:41.030Z,12.49
2022-09-01T04:00:49.412Z,12.54
2022-09-01T04:04:52.574Z,12.64
2022-09-01T04:09:02.555Z,12.71
2022-09-01T04:13:11.668Z,12.82
2022-09-01T04:17:33.776Z,12.91
2022-09-01T04:21:39.012Z,12.96
2022-09-01T04:25:41.545Z,13.02
2022-09-01T04:29:46.729Z,13.04
2022-09-01T04:33:52.651Z,13.13
2022-09-01T04:37:55.912Z,13.14
2022-09-01T04:41:58.220Z,13.23
2022-09-01T04:46:01.206Z,13.21
2022-09-01T04:50:13.862Z,13.15
2022-09-01T04:54:19.382Z,12.99
2022-09-01T04:58:22.066Z,12.98
2022-09-01T05:02:27.170Z,13.04
2022-09-01T05:06:29.829Z,13.09
2022-09-01T05:10:36.064Z,13.11
2022-09-01T05:14:53.840Z,13.20
2022-09-01T05:18:57.816Z,13.32
2022-09-01T05:23:03.124Z,13.36
2022-09-01T05:27:06.594Z,13.49
2022-09-01T05:31:12.935Z,13.64
2022-09-01T05:35:15.450Z,13.77
2022-09-01T05:39:17.655Z,13.92
2022-09-01T05:43:19.712Z,14.15
2022-09-01T05:47:23.049Z,14.31
2022-09-01T05:51:44.266Z,14.37
2022-09-01T05:55:49.021Z,14.67
2022-09-01T05:59:53.751Z,14.88
2022-09-01T06:03:59.123Z,15.10
2022-09-01T06:08:07.120Z,15.22
2022-09-01T06:12:18.086Z,15.21
2022-09-01T06:16:21.116Z,15.23
2022-09-01T06:20:24.526Z,15.29
2022-09-01T06:24:28.120Z,15.27
2022-09-01T06:28:30.340Z,15.36
2022-09-01T06:32:34.380Z,15.40
2022-09-01T06:36:40.363Z,15.55
2022-09-01T06:40:43.068Z,15.67
2022-09-01T06:44:47.070Z,15.73
2022-09-01T06:48:50.055Z,15.85
2022-09-01T07:02:01.513Z,16.60
2022-09-01T07:19:55.371Z,17.12
2022-09-01T07:24:10.267Z,17.02
2022-09-01T07:28:47.817Z,17.07
2022-09-01T07:32:50.475Z,17.12
2022-09-01T07:54:52.851Z,18.25
2022-09-01T07:58:55.000Z,18.30
2022-09-01T08:02:59.132Z,18.72
2022-09-01T08:07:01.709Z,18.89
2022-09-01T08:11:04.803Z,18.92
2022-09-01T08:15:13.887Z,18.84
2022-09-01T08:19:31.988Z,18.94
2022-09-01T08:23:44.393Z,19.10
2022-09-01T08:27:49.527Z,19.28
2022-09-01T08:31:53.625Z,19.49
2022-09-01T08:35:57.202Z,19.83
2022-09-01T08:40:00.419Z,20.16
2022-09-01T08:44:32.846Z,20.26
2022-09-01T08:53:15.916Z,20.76
2022-09-01T08:57:31.221Z,21.15
2022-09-01T09:02:05.337Z,21.32
2022-09-01T09:06:48.112Z,21.49
2022-09-01T09:11:10.690Z,21.57
2022-09-01T09:15:12.913Z,21.44
2022-09-01T09:19:32.374Z,21.46
2022-09-01T09:23:41.125Z,21.48
2022-09-01T09:27:48.978Z,21.32
2022-09-01T09:32:22.656Z,21.36
2022-09-01T09:36:36.030Z,21.49
2022-09-01T09:41:06.644Z,21.44
2022-09-01T09:45:00.556Z,21.37
2022-09-01T09:49:34.655Z,21.39
2022-09-01T09:53:39.147Z,21.50
2022-09-01T09:57:41.909Z,21.66
2022-09-01T10:01:44.054Z,21.76
2022-09-01T10:05:48.700Z,21.85
2022-09-01T10:09:52.518Z,21.71
2022-09-01T10:13:54.967Z,21.61
2022-09-01T10:18:21.050Z,21.62
2022-09-01T10:22:25.707Z,21.69
2022-09-01T10:26:35.214Z,21.83
2022-09-01T10:30:42.740Z,21.91
2022-09-01T10:34:47.362Z,21.84
2022-09-01T10:38:53.603Z,21.99
2022-09-01T10:42:59.431Z,22.21
2022-09-01T10:47:27.013Z,22.14
2022-09-01T10:51:36.366Z,22.16
2022-09-01T10:55:45.342Z,22.21
2022-09-01T10:59:56.391Z,22.42
2022-09-01T11:04:00.495Z,22.64
2022-09-01T11:08:23.134Z,22.72
2022-09-01T11:12:50.113Z,22.65
2022-09-01T11:17:10.963Z,22.98
2022-09-01T11:21:25.782Z,23.19
2022-09-01T11:25:48.583Z,23.39
2022-09-01T11:30:10.528Z,23.56
2022-09-01T11:34:19.879Z,23.39
2022-09-01T11:38:22.674Z,23.11
2022-09-01T11:42:48.061Z,23.14
2022-09-01T11:46:52.344Z,23.27
2022-09-01T11:51:01.646Z,23.47
2022-09-01T11:55:06.493Z,23.32
2022-09-01T11:59:08.542Z,23.72
2022-09-01T12:03:23.305Z,23.73
2022-09-01T12:07:47.469Z,23.70
2022-09-01T12:11:51.171Z,23.62
2022-09-01T12:16:18.268Z,23.61
2022-09-01T12:20:29.838Z,23.62
2022-09-01T12:24:35.336Z,23.64
2022-09-01T12:28:41.555Z,23.74
2022-09-01T12:32:43.978Z,23.72
2022-09-01T12:37:16.794Z,23.71
2022-09-01T12:41:31.270Z,23.84
2022-09-01T12:45:39.008Z,23.99
2022-09-01T12:49:50.778Z,24.02
2022-09-01T12:53:58.533Z,23.85
2022-09-01T12:58:04.878Z,24.06
2022-09-01T13:02:34.140Z,24.11
2022-09-01T13:06:36.565Z,24.15
2022-09-01T13:10:47.522Z,24.12
2022-09-01T13:14:49.720Z,24.41
2022-09-01T13:23:13.930Z,25.00
2022-09-01T13:27:23.342Z,24.93
2022-09-01T13:31:29.502Z,24.84
2022-09-01T13:35:31.913Z,24.98
2022-09-01T13:39:33.973Z,25.11
2022-09-01T13:43:36.048Z,25.37
2022-09-01T13:48:15.274Z,25.41
2022-09-01T13:52:00.279Z,25.50
2022-09-01T13:56:02.523Z,25.37
2022-09-01T14:00:08.269Z,25.13
2022-09-01T14:04:12.777Z,24.93
2022-09-01T14:08:18.166Z,24.75
2022-09-01T14:12:20.342Z,24.93
2022-09-01T14:16:22.492Z,24.99
2022-09-01T14:20:36.996Z,25.02
2022-09-01T14:24:40.938Z,24.97
2022-09-01T14:28:48.503Z,24.92
2022-09-01T14:32:52.305Z,25.02
2022-09-01T14:36:56.513Z,25.24
2022-09-01T14:40:58.587Z,25.45
2022-09-01T14:45:01.953Z,25.70
2022-09-01T14:49:04.618Z,25.95
2022-09-01T14:53:06.817Z,25.94
2022-09-01T15:01:34.658Z,25.70
2022-09-01T15:05:39.952Z,25.62
2022-09-01T15:09:42.597Z,25.35
2022-09-01T15:13:45.737Z,25.00
2022-09-01T15:17:47.809Z,24.51
2022-09-01T15:21:50.126Z,24.23
2022-09-01T15:25:54.669Z,24.03
2022-09-01T15:29:57.872Z,23.80
2022-09-01T15:34:02.398Z,23.70
2022-09-01T15:38:06.956Z,23.63
2022-09-01T15:42:08.996Z,23.51
2022-09-01T15:46:12.070Z,23.44
2022-09-01T15:50:21.867Z,23.53
2022-09-01T15:54:30.211Z,23.68
2022-09-01T15:58:59.521Z,23.84
2022-09-01T16:02:57.711Z,23.99
2022-09-01T16:06:59.948Z,24.07
2022-09-01T16:11:09.657Z,24.09
2022-09-01T16:15:14.386Z,24.22
2022-09-01T16:19:30.801Z,24.36
2022-09-01T16:23:41.753Z,24.45
2022-09-01T16:27:45.770Z,24.48
2022-09-01T16:31:53.756Z,24.49
2022-09-01T16:36:17.583Z,24.52
2022-09-01T16:40:39.543Z,24.48
2022-09-01T16:45:04.245Z,24.47
2022-09-01T16:49:52.021Z,24.47
2022-09-01T16:54:10.229Z,24.40
2022-09-01T16:58:29.076Z,24.39
2022-09-01T17:02:38.030Z,24.50
2022-09-01T17:06:57.665Z,24.47
2022-09-01T17:11:18.511Z,24.39
2022-09-01T17:15:36.257Z,24.34
2022-09-01T17:19:40.902Z,24.28
2022-09-01T17:24:04.908Z,24.08
2022-09-01T17:28:27.476Z,23.90
2022-09-01T17:32:48.433Z,23.77
2022-09-01T17:37:22.960Z,23.65
2022-09-01T17:41:40.188Z,23.42
2022-09-01T17:45:58.437Z,23.26
2022-09-01T17:50:12.020Z,23.04
2022-09-01T17:54:30.886Z,22.86
2022-09-01T17:58:51.389Z,22.68
2022-09-01T18:03:45.399Z,22.45
2022-09-01T18:08:21.514Z,22.25
2022-09-01T18:12:28.267Z,22.04
2022-09-01T18:16:36.327Z,21.88
2022-09-01T18:20:46.730Z,21.71
2022-09-01T18:25:07.967Z,21.52
2022-09-01T18:29:10.017Z,21.36
2022-09-01T18:33:25.431Z,21.23
2022-09-01T18:37:58.444Z,21.12
2022-09-01T18:42:16.383Z,21.02
2022-09-01T18:46:33.104Z,20.90
2022-09-01T18:50:45.401Z,20.79
2022-09-01T18:55:13.844Z,20.69
2022-09-01T18:59:45.400Z,20.60
2022-09-01T19:03:58.345Z,20.50
2022-09-01T19:08:21.873Z,20.37
2022-09-01T19:12:35.659Z,20.33
2022-09-01T19:17:03.795Z,20.22
2022-09-01T19:21:13.811Z,20.13
2022-09-01T19:25:34.377Z,20.08
2022-09-01T19:29:45.260Z,19.95
2022-09-01T19:33:54.071Z,19.85
2022-09-01T19:37:56.138Z,19.77
2022-09-01T19:42:10.950Z,19.75
2022-09-01T19:46:31.509Z,19.74
2022-09-01T19:50:47.379Z,19.73
2022-09-01T19:55:01.109Z,19.68
2022-09-01T19:59:27.570Z,19.62
2022-09-01T20:03:37.291Z,19.57
2022-09-01T20:07:54.482Z,19.50
2022-09-01T20:12:17.434Z,19.40
2022-09-01T20:16:38.466Z,19.31
2022-09-01T20:20:48.565Z,19.23
2022-09-01T20:24:51.956Z,19.15
2022-09-01T20:29:10.923Z,19.06
2022-09-01T20:33:31.164Z,19.02
2022-09-01T20:38:30.708Z,19.02
2022-09-01T20:43:06.536Z,18.97
2022-09-01T20:47:09.241Z,18.91
2022-09-01T20:51:11.805Z,18.84
2022-09-01T20:55:23.919Z,18.80
2022-09-01T20:59:39.601Z,18.74
2022-09-01T21:04:18.301Z,18.65
2022-09-01T21:08:47.149Z,18.60
2022-09-01T21:13:25.143Z,18.52
2022-09-01T21:17:46.167Z,18.45
2022-09-01T21:22:05.045Z,18.39
2022-09-01T21:26:07.636Z,18.37
2022-09-01T21:30:13.219Z,18.37
2022-09-01T21:34:17.071Z,18.36
2022-09-01T21:38:19.533Z,18.34
2022-09-01T21:42:30.428Z,18.31
2022-09-01T21:46:32.754Z,18.28
2022-09-01T21:50:34.837Z,18.29
2022-09-01T21:54:37.221Z,18.29
2022-09-01T21:58:39.720Z,18.28
2022-09-01T22:02:42.690Z,18.27
2022-09-01T22:06:46.105Z,18.25
2022-09-01T22:10:50.423Z,18.22
2022-09-01T22:14:52.671Z,18.22
2022-09-01T22:18:54.725Z,18.20
2022-09-01T22:23:01.966Z,18.16
2022-09-01T22:27:04.187Z,18.13
2022-09-01T22:31:07.127Z,18.10
2022-09-01T22:35:11.117Z,18.06
2022-09-01T22:39:14.446Z,18.01
2022-09-01T22:43:17.863Z,17.96
2022-09-01T22:47:19.973Z,17.94
2022-09-01T22:51:22.178Z,17.88
2022-09-01T22:55:24.327Z,17.77
2022-09-01T22:59:26.369Z,17.66
2022-09-01T23:03:28.562Z,17.58
2022-09-01T23:07:30.639Z,17.51
2022-09-01T23:11:32.761Z,17.39
2022-09-01T23:15:34.866Z,17.13
2022-09-01T23:19:36.942Z,16.77
2022-09-01T23:23:40.059Z,16.50
2022-09-01T23:27:44.267Z,16.27
2022-09-01T23:31:46.428Z,16.19
2022-09-01T23:35:55.206Z,16.13
2022-09-01T23:39:57.455Z,15.97
2022-09-01T23:44:02.804Z,15.85
2022-09-01T23:48:05.035Z,15.72
2022-09-01T23:52:07.411Z,15.78
2022-09-01T23:56:15.268Z,15.82
